Martin, Oklahoma
Current Conditions -  °F | °C
As of 2:53 AM on Saturday 22 Nov 2014 (Local Time) from KMKO Reporting Station
Overcast Overcast  
Wind Chill: 54°   Ceiling: 2200
Heat Index: 54°   Visibility: 10mi
Dew Point: 48°   Wind: 9mph
Humidity: 80%   Direction: 150°SSE
Pressure: 30.12"   Gusts: NA
Location:  35.6818°N, 95.3578°W
Report Text: KMKO 220853Z AUTO 15008KT 10SM OVC022 12/09 A3012 RMK AO2 SLP198 T01220089 57003
Loading
Personal Weather Stations






























Interactive Weather Map New forecast layout! Learn more

10-Day Weather Forecast

Advertisements
Track Severe Weather on mobile